sensor_id;sensor_type;location;lat;lon;timestamp;pressure;altitude;pressure_sealevel;temperature;humidity
19576;BME280;41589;51.196;7.074;2023-03-12T00:00:29;98560.47;;;2.62;100.00
19576;BME280;41589;51.196;7.074;2023-03-12T00:05:30;98558.22;;;2.53;100.00
19576;BME280;41589;51.196;7.074;2023-03-12T00:10:30;98560.56;;;2.55;100.00
19576;BME280;41589;51.196;7.074;2023-03-12T00:15:31;98554.94;;;2.58;100.00
19576;BME280;41589;51.196;7.074;2023-03-12T00:20:31;98554.16;;;2.58;100.00
19576;BME280;41589;51.196;7.074;2023-03-12T00:25:32;98550.78;;;2.70;100.00
19576;BME280;41589;51.196;7.074;2023-03-12T00:30:32;98548.13;;;2.63;100.00
19576;BME280;41589;51.196;7.074;2023-03-12T00:35:33;98544.25;;;2.57;100.00
19576;BME280;41589;51.196;7.074;2023-03-12T00:40:33;98533.91;;;2.57;100.00
19576;BME280;41589;51.196;7.074;2023-03-12T00:45:34;98524.38;;;2.58;100.00
19576;BME280;41589;51.196;7.074;2023-03-12T00:50:34;98527.91;;;2.62;100.00
19576;BME280;41589;51.196;7.074;2023-03-12T00:55:35;98513.94;;;2.66;100.00
19576;BME280;41589;51.196;7.074;2023-03-12T01:00:35;98513.22;;;2.62;100.00
19576;BME280;41589;51.196;7.074;2023-03-12T01:05:36;98507.66;;;2.62;100.00
19576;BME280;41589;51.196;7.074;2023-03-12T01:10:40;98509.88;;;2.71;100.00
19576;BME280;41589;51.196;7.074;2023-03-12T01:15:41;98503.66;;;2.63;100.00
19576;BME280;41589;51.196;7.074;2023-03-12T01:20:42;98506.72;;;2.69;100.00
19576;BME280;41589;51.196;7.074;2023-03-12T01:25:42;98491.94;;;2.75;100.00
19576;BME280;41589;51.196;7.074;2023-03-12T01:30:43;98495.13;;;2.74;100.00
19576;BME280;41589;51.196;7.074;2023-03-12T01:35:44;98495.91;;;2.74;100.00
19576;BME280;41589;51.196;7.074;2023-03-12T01:40:44;98483.59;;;2.75;100.00
19576;BME280;41589;51.196;7.074;2023-03-12T01:51:31;98476.53;;;2.71;100.00
19576;BME280;41589;51.196;7.074;2023-03-12T01:56:33;98464.91;;;2.76;100.00
19576;BME280;41589;51.196;7.074;2023-03-12T02:01:37;98453.44;;;2.74;100.00
19576;BME280;41589;51.196;7.074;2023-03-12T02:06:48;98447.97;;;2.70;100.00
19576;BME280;41589;51.196;7.074;2023-03-12T02:11:50;98446.97;;;2.60;100.00
19576;BME280;41589;51.196;7.074;2023-03-12T02:16:53;98443.25;;;2.67;100.00
19576;BME280;41589;51.196;7.074;2023-03-12T02:21:55;98454.59;;;2.76;100.00
19576;BME280;41589;51.196;7.074;2023-03-12T02:26:56;98445.38;;;2.79;100.00
19576;BME280;41589;51.196;7.074;2023-03-12T02:31:57;98439.19;;;2.72;100.00
19576;BME280;41589;51.196;7.074;2023-03-12T02:37:00;98436.91;;;2.67;100.00
19576;BME280;41589;51.196;7.074;2023-03-12T02:42:00;98437.69;;;2.67;100.00
19576;BME280;41589;51.196;7.074;2023-03-12T02:47:01;98439.91;;;2.76;100.00
19576;BME280;41589;51.196;7.074;2023-03-12T02:52:03;98437.56;;;2.74;100.00
19576;BME280;41589;51.196;7.074;2023-03-12T02:57:03;98429.88;;;2.82;100.00
19576;BME280;41589;51.196;7.074;2023-03-12T03:02:06;98427.44;;;2.84;100.00
19576;BME280;41589;51.196;7.074;2023-03-12T03:07:09;98424.66;;;2.84;100.00
19576;BME280;41589;51.196;7.074;2023-03-12T03:12:09;98418.53;;;2.73;100.00
19576;BME280;41589;51.196;7.074;2023-03-12T03:17:11;98398.72;;;2.71;100.00
19576;BME280;41589;51.196;7.074;2023-03-12T03:22:11;98410.41;;;2.82;100.00
19576;BME280;41589;51.196;7.074;2023-03-12T03:27:13;98402.19;;;2.75;100.00
19576;BME280;41589;51.196;7.074;2023-03-12T03:32:14;98396.16;;;2.80;100.00
19576;BME280;41589;51.196;7.074;2023-03-12T03:37:15;98392.31;;;2.74;100.00
19576;BME280;41589;51.196;7.074;2023-03-12T03:42:15;98382.19;;;2.63;100.00
19576;BME280;41589;51.196;7.074;2023-03-12T03:47:17;98389.09;;;2.75;100.00
19576;BME280;41589;51.196;7.074;2023-03-12T03:52:18;98392.88;;;2.85;100.00
19576;BME280;41589;51.196;7.074;2023-03-12T03:57:19;98399.22;;;2.85;100.00
19576;BME280;41589;51.196;7.074;2023-03-12T04:02:20;98392.94;;;3.01;100.00
19576;BME280;41589;51.196;7.074;2023-03-12T04:07:21;98394.84;;;3.04;100.00
19576;BME280;41589;51.196;7.074;2023-03-12T04:12:22;98393.34;;;3.00;100.00
19576;BME280;41589;51.196;7.074;2023-03-12T04:17:25;98391.88;;;2.95;100.00
19576;BME280;41589;51.196;7.074;2023-03-12T04:22:26;98383.59;;;2.91;100.00
19576;BME280;41589;51.196;7.074;2023-03-12T04:27:26;98371.19;;;2.96;100.00
19576;BME280;41589;51.196;7.074;2023-03-12T04:32:27;98365.63;;;2.96;100.00
19576;BME280;41589;51.196;7.074;2023-03-12T04:37:31;98365.38;;;2.90;100.00
19576;BME280;41589;51.196;7.074;2023-03-12T04:42:34;98365.19;;;2.98;100.00
19576;BME280;41589;51.196;7.074;2023-03-12T04:47:35;98354.28;;;3.07;100.00
19576;BME280;41589;51.196;7.074;2023-03-12T04:52:37;98356.00;;;3.01;100.00
19576;BME280;41589;51.196;7.074;2023-03-12T04:57:39;98360.06;;;2.96;100.00
19576;BME280;41589;51.196;7.074;2023-03-12T05:02:40;98364.97;;;3.08;100.00
19576;BME280;41589;51.196;7.074;2023-03-12T05:07:41;98352.38;;;3.20;100.00
19576;BME280;41589;51.196;7.074;2023-03-12T05:12:42;98341.00;;;3.14;100.00
19576;BME280;41589;51.196;7.074;2023-03-12T05:17:43;98336.41;;;3.24;100.00
19576;BME280;41589;51.196;7.074;2023-03-12T05:22:44;98325.53;;;3.13;100.00
19576;BME280;41589;51.196;7.074;2023-03-12T05:27:45;98300.94;;;3.12;100.00
19576;BME280;41589;51.196;7.074;2023-03-12T05:32:46;98316.75;;;3.15;100.00
19576;BME280;41589;51.196;7.074;2023-03-12T05:37:47;98290.22;;;3.10;100.00
19576;BME280;41589;51.196;7.074;2023-03-12T05:42:48;98282.91;;;3.00;100.00
19576;BME280;41589;51.196;7.074;2023-03-12T05:47:48;98282.75;;;3.07;100.00
19576;BME280;41589;51.196;7.074;2023-03-12T05:52:50;98272.31;;;2.95;100.00
19576;BME280;41589;51.196;7.074;2023-03-12T05:57:51;98277.09;;;2.95;100.00
19576;BME280;41589;51.196;7.074;2023-03-12T06:02:52;98274.47;;;2.87;100.00
19576;BME280;41589;51.196;7.074;2023-03-12T06:07:54;98253.53;;;2.83;100.00
19576;BME280;41589;51.196;7.074;2023-03-12T06:12:55;98253.63;;;2.96;100.00
19576;BME280;41589;51.196;7.074;2023-03-12T06:17:58;98243.13;;;3.03;100.00
19576;BME280;41589;51.196;7.074;2023-03-12T06:22:59;98234.25;;;3.08;100.00
19576;BME280;41589;51.196;7.074;2023-03-12T06:27:59;98244.59;;;3.08;100.00
19576;BME280;41589;51.196;7.074;2023-03-12T06:33:00;98240.53;;;3.12;100.00
19576;BME280;41589;51.196;7.074;2023-03-12T06:38:03;98233.06;;;3.26;100.00
19576;BME280;41589;51.196;7.074;2023-03-12T06:43:04;98246.28;;;3.21;100.00
19576;BME280;41589;51.196;7.074;2023-03-12T06:48:04;98265.91;;;3.14;100.00
19576;BME280;41589;51.196;7.074;2023-03-12T06:53:05;98250.25;;;3.20;100.00
19576;BME280;41589;51.196;7.074;2023-03-12T06:58:05;98241.56;;;3.18;100.00
19576;BME280;41589;51.196;7.074;2023-03-12T07:03:06;98253.31;;;3.26;100.00
19576;BME280;41589;51.196;7.074;2023-03-12T07:08:06;98251.16;;;3.34;100.00
19576;BME280;41589;51.196;7.074;2023-03-12T07:13:07;98255.66;;;3.28;100.00
19576;BME280;41589;51.196;7.074;2023-03-12T07:18:10;98253.66;;;3.28;100.00
19576;BME280;41589;51.196;7.074;2023-03-12T07:23:10;98245.59;;;3.34;100.00
19576;BME280;41589;51.196;7.074;2023-03-12T07:28:11;98257.13;;;3.48;100.00
19576;BME280;41589;51.196;7.074;2023-03-12T07:33:12;98232.69;;;3.56;100.00
19576;BME280;41589;51.196;7.074;2023-03-12T07:38:12;98242.59;;;3.57;100.00
19576;BME280;41589;51.196;7.074;2023-03-12T07:43:14;98238.31;;;3.69;100.00
19576;BME280;41589;51.196;7.074;2023-03-12T07:48:15;98240.47;;;3.77;100.00
19576;BME280;41589;51.196;7.074;2023-03-12T07:53:16;98230.66;;;3.73;100.00
19576;BME280;41589;51.196;7.074;2023-03-12T07:58:17;98244.66;;;3.86;100.00
19576;BME280;41589;51.196;7.074;2023-03-12T08:03:17;98230.63;;;3.89;100.00
19576;BME280;41589;51.196;7.074;2023-03-12T08:08:18;98223.94;;;3.87;100.00
19576;BME280;41589;51.196;7.074;2023-03-12T08:13:18;98236.19;;;4.05;100.00
19576;BME280;41589;51.196;7.074;2023-03-12T08:18:19;98238.41;;;4.11;100.00
19576;BME280;41589;51.196;7.074;2023-03-12T08:23:21;98256.38;;;4.22;100.00
19576;BME280;41589;51.196;7.074;2023-03-12T08:28:22;98245.94;;;4.26;100.00
19576;BME280;41589;51.196;7.074;2023-03-12T08:33:23;98251.06;;;4.28;100.00
19576;BME280;41589;51.196;7.074;2023-03-12T08:38:24;98248.75;;;4.39;100.00
19576;BME280;41589;51.196;7.074;2023-03-12T08:43:25;98247.53;;;4.40;100.00
19576;BME280;41589;51.196;7.074;2023-03-12T08:48:27;98247.53;;;4.40;100.00
19576;BME280;41589;51.196;7.074;2023-03-12T08:53:29;98233.94;;;4.42;100.00
19576;BME280;41589;51.196;7.074;2023-03-12T08:58:30;98240.34;;;4.68;100.00
19576;BME280;41589;51.196;7.074;2023-03-12T09:03:31;98226.41;;;4.81;100.00
19576;BME280;41589;51.196;7.074;2023-03-12T09:08:32;98222.84;;;4.80;100.00
19576;BME280;41589;51.196;7.074;2023-03-12T09:13:33;98237.88;;;4.83;100.00
19576;BME280;41589;51.196;7.074;2023-03-12T09:18:35;98237.56;;;4.93;100.00
19576;BME280;41589;51.196;7.074;2023-03-12T09:23:38;98244.81;;;5.04;100.00
19576;BME280;41589;51.196;7.074;2023-03-12T09:28:39;98231.94;;;5.19;100.00
19576;BME280;41589;51.196;7.074;2023-03-12T09:33:41;98243.09;;;5.19;100.00
19576;BME280;41589;51.196;7.074;2023-03-12T09:38:42;98234.06;;;5.40;100.00
19576;BME280;41589;51.196;7.074;2023-03-12T09:43:48;98238.31;;;5.32;100.00
19576;BME280;41589;51.196;7.074;2023-03-12T09:48:52;98248.03;;;5.40;100.00
19576;BME280;41589;51.196;7.074;2023-03-12T09:53:58;98241.88;;;5.45;100.00
19576;BME280;41589;51.196;7.074;2023-03-12T09:59:02;98241.53;;;5.43;100.00
19576;BME280;41589;51.196;7.074;2023-03-12T10:04:05;98246.53;;;5.61;100.00
19576;BME280;41589;51.196;7.074;2023-03-12T10:09:32;98252.31;;;5.67;100.00
19576;BME280;41589;51.196;7.074;2023-03-12T10:25:46;98247.31;;;5.96;100.00
19576;BME280;41589;51.196;7.074;2023-03-12T10:30:58;98244.47;;;6.09;100.00
19576;BME280;41589;51.196;7.074;2023-03-12T10:36:00;98262.84;;;6.19;100.00
19576;BME280;41589;51.196;7.074;2023-03-12T10:41:12;98268.41;;;6.54;100.00
19576;BME280;41589;51.196;7.074;2023-03-12T10:51:13;98275.44;;;6.58;100.00
19576;BME280;41589;51.196;7.074;2023-03-12T10:56:16;98276.75;;;6.66;100.00
19576;BME280;41589;51.196;7.074;2023-03-12T11:06:23;98268.38;;;6.98;100.00
19576;BME280;41589;51.196;7.074;2023-03-12T11:11:33;98276.91;;;7.03;100.00
19576;BME280;41589;51.196;7.074;2023-03-12T11:16:34;98277.75;;;7.13;100.00
19576;BME280;41589;51.196;7.074;2023-03-12T11:21:35;98280.28;;;7.20;100.00
19576;BME280;41589;51.196;7.074;2023-03-12T11:26:54;98267.09;;;7.30;100.00
19576;BME280;41589;51.196;7.074;2023-03-12T11:42:39;98267.13;;;7.39;100.00
19576;BME280;41589;51.196;7.074;2023-03-12T11:48:24;98269.94;;;7.48;100.00
19576;BME280;41589;51.196;7.074;2023-03-12T11:53:43;98264.66;;;7.50;100.00
19576;BME280;41589;51.196;7.074;2023-03-12T11:59:13;98262.66;;;7.60;100.00
19576;BME280;41589;51.196;7.074;2023-03-12T12:09:48;98268.72;;;7.67;100.00
19576;BME280;41589;51.196;7.074;2023-03-12T12:15:18;98256.47;;;7.74;100.00
19576;BME280;41589;51.196;7.074;2023-03-12T12:20:41;98256.31;;;7.77;100.00
19576;BME280;41589;51.196;7.074;2023-03-12T12:26:07;98250.41;;;7.84;100.00
19576;BME280;41589;51.196;7.074;2023-03-12T12:36:09;98258.84;;;8.03;100.00
19576;BME280;41589;51.196;7.074;2023-03-12T12:41:20;98256.94;;;8.09;100.00
19576;BME280;41589;51.196;7.074;2023-03-12T12:46:25;98258.72;;;8.25;100.00
19576;BME280;41589;51.196;7.074;2023-03-12T12:51:35;98239.56;;;8.23;100.00
19576;BME280;41589;51.196;7.074;2023-03-12T13:01:50;98238.84;;;8.74;100.00
19576;BME280;41589;51.196;7.074;2023-03-12T13:06:53;98216.41;;;9.16;100.00
19576;BME280;41589;51.196;7.074;2023-03-12T13:11:55;98209.00;;;9.52;100.00
19576;BME280;41589;51.196;7.074;2023-03-12T13:17:06;98197.66;;;9.70;100.00
19576;BME280;41589;51.196;7.074;2023-03-12T13:23:01;98215.59;;;9.73;100.00
19576;BME280;41589;51.196;7.074;2023-03-12T13:27:40;98212.13;;;10.02;100.00
19576;BME280;41589;51.196;7.074;2023-03-12T13:43:02;98188.03;;;10.39;100.00
19576;BME280;41589;51.196;7.074;2023-03-12T13:48:13;98192.00;;;10.48;100.00
19576;BME280;41589;51.196;7.074;2023-03-12T13:53:21;98177.84;;;10.57;100.00
19576;BME280;41589;51.196;7.074;2023-03-12T13:58:22;98166.69;;;10.62;100.00
19576;BME280;41589;51.196;7.074;2023-03-12T14:03:40;98160.38;;;10.67;100.00
19576;BME280;41589;51.196;7.074;2023-03-12T14:19:27;98159.31;;;10.65;100.00
19576;BME280;41589;51.196;7.074;2023-03-12T14:24:50;98150.97;;;10.56;100.00
19576;BME280;41589;51.196;7.074;2023-03-12T14:29:57;98147.47;;;10.46;100.00
19576;BME280;41589;51.196;7.074;2023-03-12T14:35:10;98161.63;;;10.37;100.00
19576;BME280;41589;51.196;7.074;2023-03-12T14:40:22;98169.38;;;10.27;100.00
19576;BME280;41589;51.196;7.074;2023-03-12T14:45:23;98163.75;;;10.12;100.00
19576;BME280;41589;51.196;7.074;2023-03-12T14:50:29;98178.03;;;10.09;100.00
19576;BME280;41589;51.196;7.074;2023-03-12T14:55:35;98188.00;;;10.10;100.00
19576;BME280;41589;51.196;7.074;2023-03-12T15:00:36;98191.97;;;10.03;100.00
19576;BME280;41589;51.196;7.074;2023-03-12T15:05:36;98195.13;;;9.96;100.00
19576;BME280;41589;51.196;7.074;2023-03-12T15:10:37;98187.59;;;10.02;100.00
19576;BME280;41589;51.196;7.074;2023-03-12T15:15:40;98206.88;;;9.95;100.00
19576;BME280;41589;51.196;7.074;2023-03-12T15:20:42;98201.16;;;9.89;100.00
19576;BME280;41589;51.196;7.074;2023-03-12T15:25:43;98203.00;;;9.92;100.00
19576;BME280;41589;51.196;7.074;2023-03-12T15:30:44;98196.78;;;9.88;100.00
19576;BME280;41589;51.196;7.074;2023-03-12T15:41:18;98195.03;;;9.91;100.00
19576;BME280;41589;51.196;7.074;2023-03-12T15:46:19;98202.25;;;10.06;100.00
19576;BME280;41589;51.196;7.074;2023-03-12T15:51:36;98201.59;;;10.11;100.00
19576;BME280;41589;51.196;7.074;2023-03-12T15:56:39;98211.19;;;10.20;100.00
19576;BME280;41589;51.196;7.074;2023-03-12T16:01:50;98224.16;;;10.17;100.00
19576;BME280;41589;51.196;7.074;2023-03-12T16:06:51;98223.03;;;10.24;100.00
19576;BME280;41589;51.196;7.074;2023-03-12T16:11:53;98226.22;;;10.17;100.00
19576;BME280;41589;51.196;7.074;2023-03-12T16:16:54;98230.97;;;10.10;100.00
19576;BME280;41589;51.196;7.074;2023-03-12T16:21:54;98237.13;;;10.00;100.00
19576;BME280;41589;51.196;7.074;2023-03-12T16:26:57;98229.34;;;9.95;100.00
19576;BME280;41589;51.196;7.074;2023-03-12T16:31:58;98225.78;;;9.94;100.00
19576;BME280;41589;51.196;7.074;2023-03-12T16:36:58;98240.41;;;9.98;100.00
19576;BME280;41589;51.196;7.074;2023-03-12T16:42:00;98245.50;;;9.85;100.00
19576;BME280;41589;51.196;7.074;2023-03-12T16:47:04;98244.72;;;9.84;100.00
19576;BME280;41589;51.196;7.074;2023-03-12T16:52:24;98253.03;;;9.79;100.00
19576;BME280;41589;51.196;7.074;2023-03-12T16:57:39;98247.41;;;9.79;100.00
19576;BME280;41589;51.196;7.074;2023-03-12T17:02:43;98256.94;;;9.81;100.00
19576;BME280;41589;51.196;7.074;2023-03-12T17:07:43;98238.97;;;9.79;100.00
19576;BME280;41589;51.196;7.074;2023-03-12T17:12:44;98242.59;;;9.79;100.00
19576;BME280;41589;51.196;7.074;2023-03-12T17:17:45;98234.28;;;9.76;100.00
19576;BME280;41589;51.196;7.074;2023-03-12T17:22:46;98237.69;;;9.89;100.00
19576;BME280;41589;51.196;7.074;2023-03-12T17:27:47;98246.47;;;9.82;100.00
19576;BME280;41589;51.196;7.074;2023-03-12T17:33:26;98242.59;;;9.79;100.00
19576;BME280;41589;51.196;7.074;2023-03-12T17:38:30;98254.63;;;9.80;100.00
19576;BME280;41589;51.196;7.074;2023-03-12T17:43:30;98256.16;;;9.81;100.00
19576;BME280;41589;51.196;7.074;2023-03-12T17:48:31;98268.28;;;9.87;100.00
19576;BME280;41589;51.196;7.074;2023-03-12T17:53:32;98268.28;;;9.87;100.00
19576;BME280;41589;51.196;7.074;2023-03-12T17:58:33;98275.34;;;9.82;100.00
19576;BME280;41589;51.196;7.074;2023-03-12T18:03:33;98285.16;;;9.87;100.00
19576;BME280;41589;51.196;7.074;2023-03-12T18:08:37;98283.44;;;9.90;100.00
19576;BME280;41589;51.196;7.074;2023-03-12T18:13:37;98289.53;;;9.88;100.00
19576;BME280;41589;51.196;7.074;2023-03-12T18:18:38;98302.25;;;9.98;100.00
19576;BME280;41589;51.196;7.074;2023-03-12T18:23:39;98286.06;;;9.93;100.00
19576;BME280;41589;51.196;7.074;2023-03-12T18:28:41;98283.44;;;9.90;100.00
19576;BME280;41589;51.196;7.074;2023-03-12T18:33:42;98288.09;;;9.93;100.00
19576;BME280;41589;51.196;7.074;2023-03-12T18:38:42;98294.38;;;9.88;100.00
19576;BME280;41589;51.196;7.074;2023-03-12T18:43:43;98288.19;;;9.98;100.00
19576;BME280;41589;51.196;7.074;2023-03-12T18:48:43;98290.91;;;9.93;100.00
19576;BME280;41589;51.196;7.074;2023-03-12T18:53:43;98288.88;;;9.93;100.00
19576;BME280;41589;51.196;7.074;2023-03-12T18:58:46;98289.00;;;9.99;100.00
19576;BME280;41589;51.196;7.074;2023-03-12T19:03:47;98280.25;;;9.97;100.00
19576;BME280;41589;51.196;7.074;2023-03-12T19:08:47;98290.00;;;9.87;100.00
19576;BME280;41589;51.196;7.074;2023-03-12T19:13:51;98272.59;;;9.97;100.00
19576;BME280;41589;51.196;7.074;2023-03-12T19:18:51;98270.00;;;10.08;100.00
19576;BME280;41589;51.196;7.074;2023-03-12T19:23:51;98281.38;;;10.14;100.00
19576;BME280;41589;51.196;7.074;2023-03-12T19:28:52;98274.69;;;10.11;100.00
19576;BME280;41589;51.196;7.074;2023-03-12T19:33:52;98278.09;;;10.16;100.00
19576;BME280;41589;51.196;7.074;2023-03-12T19:38:53;98264.09;;;10.06;100.00
19576;BME280;41589;51.196;7.074;2023-03-12T19:43:53;98250.22;;;10.03;100.00
19576;BME280;41589;51.196;7.074;2023-03-12T19:48:53;98248.47;;;10.05;100.00
19576;BME280;41589;51.196;7.074;2023-03-12T19:53:54;98256.56;;;10.12;100.00
19576;BME280;41589;51.196;7.074;2023-03-12T19:58:54;98252.38;;;10.08;100.00
19576;BME280;41589;51.196;7.074;2023-03-12T20:03:55;98241.81;;;10.18;100.00
19576;BME280;41589;51.196;7.074;2023-03-12T20:08:55;98240.09;;;10.20;100.00
19576;BME280;41589;51.196;7.074;2023-03-12T20:13:55;98227.19;;;10.28;100.00
19576;BME280;41589;51.196;7.074;2023-03-12T20:18:56;98226.88;;;10.11;100.00
19576;BME280;41589;51.196;7.074;2023-03-12T20:23:56;98220.28;;;10.14;100.00
19576;BME280;41589;51.196;7.074;2023-03-12T20:29:00;98226.13;;;10.11;100.00
19576;BME280;41589;51.196;7.074;2023-03-12T20:34:01;98213.22;;;10.19;100.00
19576;BME280;41589;51.196;7.074;2023-03-12T20:39:02;98211.56;;;10.12;100.00
19576;BME280;41589;51.196;7.074;2023-03-12T20:44:02;98202.78;;;10.20;100.00
19576;BME280;41589;51.196;7.074;2023-03-12T20:49:03;98206.34;;;10.20;100.00
19576;BME280;41589;51.196;7.074;2023-03-12T20:54:03;98204.19;;;10.15;100.00
19576;BME280;41589;51.196;7.074;2023-03-12T20:59:03;98186.19;;;10.22;100.00
19576;BME280;41589;51.196;7.074;2023-03-12T21:04:04;98185.78;;;10.14;100.00
19576;BME280;41589;51.196;7.074;2023-03-12T21:09:04;98176.44;;;10.08;100.00
19576;BME280;41589;51.196;7.074;2023-03-12T21:14:06;98164.91;;;10.06;100.00
19576;BME280;41589;51.196;7.074;2023-03-12T21:19:06;98164.34;;;10.02;100.00
19576;BME280;41589;51.196;7.074;2023-03-12T21:24:07;98144.03;;;9.98;100.00
19576;BME280;41589;51.196;7.074;2023-03-12T21:29:07;98148.03;;;9.91;100.00
19576;BME280;41589;51.196;7.074;2023-03-12T21:34:08;98146.97;;;9.89;100.00
19576;BME280;41589;51.196;7.074;2023-03-12T21:39:08;98144.25;;;9.94;100.00
19576;BME280;41589;51.196;7.074;2023-03-12T21:44:09;98137.81;;;9.79;100.00
19576;BME280;41589;51.196;7.074;2023-03-12T21:49:09;98129.38;;;9.79;100.00
19576;BME280;41589;51.196;7.074;2023-03-12T21:54:10;98140.00;;;9.75;100.00
19576;BME280;41589;51.196;7.074;2023-03-12T21:59:10;98139.97;;;9.84;100.00
19576;BME280;41589;51.196;7.074;2023-03-12T22:04:10;98128.00;;;9.74;100.00
19576;BME280;41589;51.196;7.074;2023-03-12T22:09:11;98123.03;;;9.69;100.00
19576;BME280;41589;51.196;7.074;2023-03-12T22:14:11;98123.63;;;9.73;100.00
19576;BME280;41589;51.196;7.074;2023-03-12T22:19:12;98109.56;;;9.73;100.00
19576;BME280;41589;51.196;7.074;2023-03-12T22:24:12;98106.28;;;9.75;100.00
19576;BME280;41589;51.196;7.074;2023-03-12T22:29:13;98107.25;;;9.72;100.00
19576;BME280;41589;51.196;7.074;2023-03-12T22:34:13;98091.59;;;9.80;100.00
19576;BME280;41589;51.196;7.074;2023-03-12T22:39:15;98097.38;;;9.76;100.00
19576;BME280;41589;51.196;7.074;2023-03-12T22:44:16;98081.97;;;9.72;100.00
19576;BME280;41589;51.196;7.074;2023-03-12T22:49:17;98077.84;;;9.82;100.00
19576;BME280;41589;51.196;7.074;2023-03-12T22:54:17;98066.31;;;9.80;100.00
19576;BME280;41589;51.196;7.074;2023-03-12T22:59:18;98053.13;;;9.86;100.00
19576;BME280;41589;51.196;7.074;2023-03-12T23:04:18;98039.38;;;9.88;100.00
19576;BME280;41589;51.196;7.074;2023-03-12T23:09:18;98037.03;;;9.87;100.00
19576;BME280;41589;51.196;7.074;2023-03-12T23:14:19;98020.00;;;9.90;100.00
19576;BME280;41589;51.196;7.074;2023-03-12T23:19:19;98009.31;;;9.94;100.00
19576;BME280;41589;51.196;7.074;2023-03-12T23:24:20;97998.00;;;9.89;100.00
19576;BME280;41589;51.196;7.074;2023-03-12T23:29:21;97987.59;;;9.95;100.00
19576;BME280;41589;51.196;7.074;2023-03-12T23:34:22;97969.16;;;10.08;100.00
19576;BME280;41589;51.196;7.074;2023-03-12T23:39:22;97964.13;;;10.12;100.00
19576;BME280;41589;51.196;7.074;2023-03-12T23:44:23;97963.25;;;10.06;100.00
19576;BME280;41589;51.196;7.074;2023-03-12T23:49:23;97941.25;;;10.05;100.00
19576;BME280;41589;51.196;7.074;2023-03-12T23:54:24;97940.69;;;10.01;100.00
19576;BME280;41589;51.196;7.074;2023-03-12T23:59:24;97929.50;;;10.06;100.00
